Frenchville, ME

12:07 AM EDT on July 24, 2014 (GMT -0400)
K1FTK (KMESAINT1) Elev 825 ft | 47.25 °N, 68.35 °W | Change Station

Current weather conditions updated 6 minutes ago

Mostly Cloudy
Mostly Cloudy
61.4 °F
Feels Like 61.4 °F
N
0.0
Wind Variable Wind from NE
Gusts 0.0 mph

Today is forecast to be Cooler than yesterday.

Today
High -- | Low -- °F
--% Chance of Precip.
Yesterday
High -- | Low -- °F
Precip. -- in
5:02 AM 8:17 PM
Waning Crescent, 7% visible
Pressure 29.77 in
Visibility 10.0 miles
Clouds Mostly Cloudy 6000 ft
Dew Point 56 °F
Humidity 81%
Rainfall 0.00 in
Snow Depth Not available.
UV 0 out of 12
Pollen 5.20 out of 12
Ozone Good
PM2.5 Good
Flu Activity Not available.
METAR KFVE 240353Z AUTO 35008KT 10SM BKN060 15/12 A2979 RMK AO2 SLP081 T01500117

More Conditions Fewer Conditions

Pressure 29.77 in
Visibility 10.0 miles
Clouds Mostly Cloudy 6000 ft
Dew Point 56 °F
Humidity 81%
Rainfall 0.00 in
Snow Depth Not available.
UV 0 out of 12
Pollen 5.20 out of 12
Ozone Good
PM2.5 Good
Flu Activity Not available.
METAR KFVE 240353Z AUTO 35008KT 10SM BKN060 15/12 A2979 RMK AO2 SLP081 T01500117

More Conditions Fewer Conditions

10-Day Weather Forecast

Almanac

Astronomy

Jul. 24, 2014 Rise Set
Actual Time 5:02 AM EDT 8:17 PM EDT
Civil Twilight 4:25 AM EDT 8:53 PM EDT
Nautical Twilight 3:36 AM EDT 9:42 PM EDT
Astronomical Twilight 2:35 AM EDT 10:42 PM EDT
Moon 3:08 AM EDT 6:27 PM EDT
Length of Visible Light 16h 28m
Length of Day
15h 14m
Tomorrow will be 2m 19s shorter.
Waning Crescent, 7% of the Moon is Illuminated
Today
Waning Crescent
Jul 26
New
Aug 3
First Quarter
Aug 10
Full
Aug 17
Last Quarter

Yesterday's Extremes

State Highs State Lows

Community

WunderPhotos

Upload Photos

1,736,891 photos uploaded!

Nearby

Air Quality

  Air Quality AQ Index Pollutant
Yesterday Good
PM2.5
Yesterday Good
OZONE
Current Good
PM2.5
Current Good
OZONE
Wednesday Moderate
PM2.5
Wednesday Good
OZONE
Thursday Good
OZONE
Thursday Good
PM2.5
Friday Good
OZONE
Friday Good
PM2.5
Saturday Good
OZONE
Saturday Good
PM2.5

Snow Depth

Station Depth Elevation
No new snow has been reported.

Earthquake Activity

City Distance Mag. Time & Date
No recent earthquake activity has been reported nearby.
Minimum magnitude displayed is 2.5.

Coastal Water Temperatures

Place Temperature
No Stations Reporting

Nearby Weather Stations

Station Location Temp. Dew Point Humidity Wind Precip. Elev Updated Type
K1FTK, Saint Agatha, ME 61.4 °F 56 °F 81% NE  at  0.0 mph 0.00 in / hr 825 ft 12:00 AM EDT Normal
HADS ST.JOHN RIVER BELOW FISH RIVER A ME, New Canada, ME 61 °F - - North  at  - 0.00 in / hr 488 ft 11:30 PM EDT MADIS
Apex Wx, Fort Kent, ME 62.4 °F 54 °F 74% NNE  at  5.0 mph 0.00 in / hr 541 ft 12:07 AM EDT Rapid Fire
N7GLR, Grand Isle [Lille], ME 62.0 °F 56 °F 82% South  at  2.0 mph 0.00 in / hr 711 ft 12:00 AM EDT Normal
NEPP Eagle Lake, ME, Eagle Lake, ME 66 °F - - North  at  - 0.00 in / hr 666 ft 10:45 PM EDT MADIS

Show More Stations Show Fewer Stations